createdAt,value
2022-08-05T00:02:25.692Z,87.60
2022-08-05T00:05:05.821Z,87.60
2022-08-05T00:08:01.130Z,87.60
2022-08-05T00:10:38.969Z,87.50
2022-08-05T00:13:20.423Z,87.50
2022-08-05T00:16:36.342Z,87.50
2022-08-05T00:19:19.636Z,87.50
2022-08-05T00:21:58.580Z,87.70
2022-08-05T00:24:43.993Z,87.60
2022-08-05T00:27:16.635Z,87.90
2022-08-05T00:29:44.964Z,88.40
2022-08-05T00:32:25.900Z,88.50
2022-08-05T00:35:07.596Z,88.40
2022-08-05T00:37:53.256Z,88.40
2022-08-05T00:40:26.875Z,88.60
2022-08-05T00:42:59.210Z,88.40
2022-08-05T00:45:38.082Z,88.40
2022-08-05T00:48:11.442Z,88.40
2022-08-05T00:50:44.227Z,88.40
2022-08-05T00:54:01.325Z,88.50
2022-08-05T00:56:22.934Z,88.40
2022-08-05T00:58:52.116Z,88.60
2022-08-05T01:01:42.205Z,88.70
2022-08-05T01:04:26.809Z,88.80
2022-08-05T01:07:13.680Z,89.00
2022-08-05T01:09:55.703Z,89.10
2022-08-05T01:12:24.388Z,88.90
2022-08-05T01:15:36.158Z,89.20
2022-08-05T01:18:13.069Z,89.00
2022-08-05T01:20:46.827Z,88.90
2022-08-05T01:23:34.859Z,89.10
2022-08-05T01:26:27.014Z,89.10
2022-08-05T01:29:05.592Z,89.70
2022-08-05T01:32:03.332Z,89.90
2022-08-05T01:34:50.309Z,90.00
2022-08-05T01:37:26.485Z,90.00
2022-08-05T01:40:01.741Z,90.10
2022-08-05T01:42:38.552Z,90.20
2022-08-05T01:45:24.264Z,90.10
2022-08-05T01:48:00.011Z,90.00
2022-08-05T01:51:15.422Z,89.90
2022-08-05T01:54:12.878Z,90.00
2022-08-05T01:58:10.130Z,90.10
2022-08-05T02:00:01.134Z,90.10
2022-08-05T02:05:30.710Z,90.10
2022-08-05T02:08:05.221Z,90.10
2022-08-05T02:10:42.109Z,90.00
2022-08-05T02:13:53.506Z,90.00
2022-08-05T02:16:52.765Z,89.70
2022-08-05T02:19:27.323Z,89.60
2022-08-05T02:21:59.313Z,89.40
2022-08-05T02:24:51.463Z,89.30
2022-08-05T02:27:58.634Z,89.10
2022-08-05T02:30:28.283Z,88.80
2022-08-05T02:33:03.699Z,89.10
2022-08-05T02:35:38.583Z,88.90
2022-08-05T02:38:44.846Z,88.40
2022-08-05T02:41:18.511Z,88.30
2022-08-05T02:44:45.531Z,88.20
2022-08-05T02:47:58.420Z,88.30
2022-08-05T02:50:35.179Z,88.30
2022-08-05T02:53:23.231Z,88.40
2022-08-05T03:03:33.661Z,88.50
2022-08-05T03:06:53.878Z,88.60
2022-08-05T03:08:14.383Z,88.70
2022-08-05T03:11:56.441Z,88.90
2022-08-05T03:14:15.293Z,89.00
2022-08-05T03:16:45.952Z,88.90
2022-08-05T03:19:33.728Z,89.00
2022-08-05T03:22:32.425Z,88.70
2022-08-05T03:25:32.530Z,88.80
2022-08-05T03:28:18.555Z,88.90
2022-08-05T03:30:55.264Z,88.90
2022-08-05T03:34:05.632Z,89.10
2022-08-05T03:37:04.949Z,89.20
2022-08-05T03:44:10.407Z,89.10
2022-08-05T03:46:54.493Z,88.50
2022-08-05T03:49:51.484Z,88.40
2022-08-05T03:55:52.227Z,88.10
2022-08-05T03:56:09.877Z,87.90
2022-08-05T03:59:00.364Z,87.60
2022-08-05T04:04:38.071Z,86.30
2022-08-05T04:07:57.232Z,86.40
2022-08-05T04:10:41.936Z,85.90
2022-08-05T04:16:43.299Z,84.80
2022-08-05T04:20:00.211Z,84.50
2022-08-05T04:23:02.068Z,84.40
2022-08-05T04:26:00.362Z,84.20
2022-08-05T04:28:38.768Z,84.00
2022-08-05T04:31:24.112Z,83.30
2022-08-05T04:34:19.236Z,83.00
2022-08-05T04:37:08.821Z,82.10
2022-08-05T04:39:55.714Z,81.30
2022-08-05T04:42:26.262Z,80.80
2022-08-05T04:45:23.040Z,80.10
2022-08-05T04:48:41.324Z,80.20
2022-08-05T04:51:20.665Z,79.60
2022-08-05T04:57:05.537Z,78.40
2022-08-05T05:00:24.192Z,78.10
2022-08-05T05:03:50.509Z,77.80
2022-08-05T05:06:38.827Z,77.60
2022-08-05T05:09:29.782Z,77.60
2022-08-05T05:12:09.253Z,76.80
2022-08-05T05:14:50.562Z,76.80
2022-08-05T05:17:24.270Z,76.50
2022-08-05T05:20:01.763Z,76.70
2022-08-05T05:22:33.336Z,76.70
2022-08-05T05:25:14.812Z,76.40
2022-08-05T05:28:22.291Z,76.30
2022-08-05T05:31:00.426Z,76.10
2022-08-05T05:33:28.672Z,76.30
2022-08-05T05:36:28.713Z,75.50
2022-08-05T05:39:19.118Z,74.70
2022-08-05T05:42:06.137Z,75.30
2022-08-05T05:44:55.372Z,75.60
2022-08-05T05:47:30.516Z,75.00
2022-08-05T05:50:44.374Z,75.10
2022-08-05T05:53:21.309Z,74.80
2022-08-05T05:56:00.998Z,74.70
2022-08-05T05:58:36.348Z,74.50
2022-08-05T06:01:12.798Z,74.50
2022-08-05T06:04:00.665Z,74.10
2022-08-05T06:06:31.001Z,73.80
2022-08-05T06:09:04.106Z,73.50
2022-08-05T06:12:02.688Z,73.90
2022-08-05T06:14:48.920Z,72.70
2022-08-05T06:17:53.152Z,73.60
2022-08-05T06:20:18.898Z,73.60
2022-08-05T06:23:00.262Z,74.40
2022-08-05T06:26:12.728Z,73.20
2022-08-05T06:28:22.603Z,72.60
2022-08-05T06:30:58.170Z,72.70
2022-08-05T06:33:33.270Z,72.70
2022-08-05T06:36:18.860Z,72.00
2022-08-05T06:38:55.075Z,72.00
2022-08-05T06:41:34.673Z,71.60
2022-08-05T06:44:11.882Z,71.70
2022-08-05T06:46:58.049Z,72.60
2022-08-05T06:50:01.251Z,71.90
2022-08-05T06:52:36.638Z,71.90
2022-08-05T06:55:06.629Z,72.20
2022-08-05T06:57:58.043Z,72.20
2022-08-05T07:00:27.629Z,72.60
2022-08-05T07:03:00.586Z,71.20
2022-08-05T07:05:37.406Z,71.00
2022-08-05T07:08:16.991Z,71.40
2022-08-05T07:10:54.387Z,70.10
2022-08-05T07:13:58.822Z,70.10
2022-08-05T07:17:59.875Z,71.20
2022-08-05T07:22:54.119Z,71.80
2022-08-05T07:28:57.748Z,72.10
2022-08-05T07:31:54.428Z,71.90
2022-08-05T07:34:38.178Z,72.30
2022-08-05T07:37:36.072Z,71.20
2022-08-05T07:40:26.720Z,71.50
2022-08-05T07:43:47.839Z,71.60
2022-08-05T07:46:24.425Z,71.50
2022-08-05T07:49:56.245Z,70.10
2022-08-05T07:54:27.414Z,70.50
2022-08-05T07:57:00.380Z,69.20
2022-08-05T07:59:46.923Z,67.50
2022-08-05T08:02:31.025Z,67.20
2022-08-05T08:05:49.867Z,67.40
2022-08-05T08:09:26.446Z,67.60
2022-08-05T08:12:52.980Z,68.00
2022-08-05T08:16:33.271Z,67.40
2022-08-05T08:18:24.288Z,66.20
2022-08-05T08:21:04.359Z,66.90
2022-08-05T08:24:13.970Z,67.20
2022-08-05T08:27:44.953Z,67.80
2022-08-05T08:30:37.745Z,68.60
2022-08-05T08:33:19.191Z,67.80
2022-08-05T08:36:40.247Z,68.40
2022-08-05T08:39:15.801Z,68.60
2022-08-05T08:42:02.289Z,68.10
2022-08-05T08:45:22.114Z,68.00
2022-08-05T08:51:03.700Z,69.10
2022-08-05T08:53:48.089Z,66.90
2022-08-05T08:56:29.507Z,66.80
2022-08-05T08:59:14.625Z,65.90
2022-08-05T09:01:57.282Z,66.90
2022-08-05T09:04:37.107Z,66.40
2022-08-05T09:07:59.078Z,67.30
2022-08-05T09:10:55.149Z,66.70
2022-08-05T09:13:31.663Z,65.70
2022-08-05T09:16:30.221Z,66.40
2022-08-05T09:19:55.152Z,65.70
2022-08-05T09:24:02.462Z,63.80
2022-08-05T09:26:40.413Z,65.10
2022-08-05T09:29:47.561Z,65.20
2022-08-05T09:32:46.745Z,64.50
2022-08-05T09:36:16.677Z,63.90
2022-08-05T09:39:22.250Z,63.90
2022-08-05T09:42:23.289Z,64.00
2022-08-05T09:45:17.538Z,63.10
2022-08-05T09:48:21.219Z,61.60
2022-08-05T09:51:04.380Z,62.30
2022-08-05T09:54:02.102Z,61.50
2022-08-05T09:57:23.164Z,61.90
2022-08-05T10:00:04.766Z,61.30
2022-08-05T10:03:56.922Z,61.50
2022-08-05T10:06:16.091Z,61.80
2022-08-05T10:08:55.362Z,61.30
2022-08-05T10:11:56.364Z,61.90
2022-08-05T10:14:32.532Z,61.10
2022-08-05T10:17:38.118Z,60.50
2022-08-05T10:20:10.886Z,62.00
2022-08-05T10:22:50.878Z,60.40
2022-08-05T10:25:29.018Z,60.40
2022-08-05T10:28:30.304Z,60.20
2022-08-05T10:32:52.054Z,58.60
2022-08-05T10:34:54.286Z,58.60
2022-08-05T10:37:44.506Z,59.10
2022-08-05T10:40:28.587Z,59.70
2022-08-05T10:43:40.470Z,58.60
2022-08-05T10:46:23.936Z,57.60
2022-08-05T10:49:10.044Z,58.60
2022-08-05T10:52:17.582Z,59.00
2022-08-05T10:55:07.653Z,60.20
2022-08-05T10:58:18.004Z,58.90
2022-08-05T11:01:55.081Z,57.70
2022-08-05T11:04:37.342Z,59.30
2022-08-05T11:11:07.729Z,56.50
2022-08-05T11:15:01.208Z,58.20
2022-08-05T11:18:15.041Z,57.30
2022-08-05T11:21:11.714Z,57.10
2022-08-05T11:24:33.199Z,56.80
2022-08-05T11:27:25.593Z,57.40
2022-08-05T11:30:13.388Z,57.50
2022-08-05T11:32:44.449Z,58.10
2022-08-05T11:36:42.883Z,56.50
2022-08-05T11:39:16.331Z,56.40
2022-08-05T11:42:28.568Z,56.90
2022-08-05T11:48:20.580Z,58.10
2022-08-05T11:51:44.015Z,56.90
2022-08-05T11:54:35.816Z,57.10
2022-08-05T11:58:11.834Z,58.00
2022-08-05T12:00:38.603Z,56.20
2022-08-05T12:04:05.522Z,56.20
2022-08-05T12:09:55.830Z,55.60
2022-08-05T12:13:49.111Z,55.70
2022-08-05T12:16:25.697Z,56.40
2022-08-05T12:18:56.592Z,56.10
2022-08-05T12:21:39.157Z,54.90
2022-08-05T12:24:56.674Z,54.80
2022-08-05T12:30:45.930Z,55.40
2022-08-05T12:33:45.531Z,55.50
2022-08-05T12:36:22.695Z,55.20
2022-08-05T12:39:20.309Z,54.80
2022-08-05T12:42:26.768Z,54.60
2022-08-05T12:50:04.720Z,54.60
2022-08-05T12:52:30.386Z,55.30
2022-08-05T12:55:28.407Z,55.80
2022-08-05T12:58:39.174Z,54.20
2022-08-05T13:02:10.015Z,55.20
2022-08-05T13:05:14.349Z,55.10
2022-08-05T13:07:59.325Z,54.60
2022-08-05T13:11:15.474Z,53.90
2022-08-05T13:14:06.342Z,54.20
2022-08-05T13:17:09.367Z,53.50
2022-08-05T13:22:47.862Z,53.40
2022-08-05T13:26:18.135Z,54.70
2022-08-05T13:29:37.373Z,55.00
2022-08-05T13:33:14.193Z,54.80
2022-08-05T13:36:13.022Z,53.60
2022-08-05T13:40:14.139Z,53.30
2022-08-05T13:42:16.764Z,52.00
2022-08-05T13:44:53.390Z,52.30
2022-08-05T13:48:08.452Z,54.00
2022-08-05T13:50:47.812Z,53.90
2022-08-05T13:53:48.538Z,53.40
2022-08-05T13:57:51.392Z,53.10
2022-08-05T14:06:58.730Z,53.30
2022-08-05T14:10:50.859Z,53.40
2022-08-05T14:19:54.661Z,52.00
2022-08-05T14:23:09.053Z,53.00
2022-08-05T14:25:59.590Z,51.50
2022-08-05T14:29:16.324Z,51.90
2022-08-05T14:32:27.130Z,51.40
2022-08-05T14:35:20.779Z,51.50
2022-08-05T14:42:02.585Z,52.20
2022-08-05T14:44:42.459Z,51.90
2022-08-05T14:48:33.304Z,52.50
2022-08-05T14:55:39.606Z,52.40
2022-08-05T14:59:35.634Z,52.50
2022-08-05T15:03:00.192Z,52.20
2022-08-05T15:06:13.268Z,52.90
2022-08-05T15:11:51.223Z,52.50
2022-08-05T15:14:50.688Z,52.10
2022-08-05T15:17:46.651Z,52.20
2022-08-05T17:58:21.590Z,56.40
2022-08-05T18:01:49.348Z,57.20
2022-08-05T18:07:58.425Z,57.50
2022-08-05T18:10:58.779Z,57.70
2022-08-05T18:18:01.503Z,58.00
2022-08-05T18:21:26.131Z,58.40
2022-08-05T18:24:07.706Z,58.70
2022-08-05T18:27:18.803Z,59.20
2022-08-05T18:29:54.026Z,59.50
2022-08-05T18:32:59.941Z,59.90
2022-08-05T18:35:59.873Z,60.20
2022-08-05T18:39:22.400Z,60.50
2022-08-05T18:42:17.546Z,61.00
2022-08-05T18:44:51.473Z,61.40
2022-08-05T18:52:04.542Z,61.80
2022-08-05T18:54:07.574Z,62.20
2022-08-05T19:00:35.212Z,63.10
2022-08-05T19:03:11.358Z,63.40
2022-08-05T19:06:12.424Z,63.70
2022-08-05T19:08:30.570Z,64.00
2022-08-05T19:11:05.177Z,64.40
2022-08-05T19:14:01.796Z,64.70
2022-08-05T19:16:49.925Z,64.70
2022-08-05T19:19:32.330Z,65.20
2022-08-05T19:22:27.759Z,65.30
2022-08-05T19:25:08.734Z,65.70
2022-08-05T19:27:53.191Z,65.90
2022-08-05T19:30:49.511Z,66.10
2022-08-05T19:33:48.419Z,66.40
2022-08-05T19:39:50.994Z,67.20
2022-08-05T19:42:36.037Z,67.30
2022-08-05T19:45:28.537Z,67.50
2022-08-05T19:48:16.350Z,67.70
2022-08-05T19:51:12.833Z,68.00
2022-08-05T21:29:32.475Z,75.70
2022-08-05T21:32:37.196Z,76.00
2022-08-05T21:35:58.714Z,76.20
2022-08-05T21:38:40.580Z,76.30
2022-08-05T21:41:52.400Z,76.40
2022-08-05T21:44:59.984Z,76.60
2022-08-05T21:47:56.143Z,76.70
2022-08-05T21:50:53.116Z,76.90
2022-08-05T21:53:56.876Z,77.20
2022-08-05T21:56:44.740Z,77.40
2022-08-05T22:00:03.230Z,77.50
2022-08-05T22:03:06.717Z,78.00
2022-08-05T22:06:35.569Z,78.20
2022-08-05T22:09:21.099Z,78.30
2022-08-05T22:12:19.373Z,78.50
2022-08-05T22:16:00.722Z,78.60
2022-08-05T22:18:33.481Z,79.10
2022-08-05T22:25:02.767Z,79.30
2022-08-05T22:28:09.495Z,79.60
2022-08-05T22:31:16.229Z,79.60
2022-08-05T22:34:08.540Z,79.50
2022-08-05T22:37:11.020Z,79.90
2022-08-05T22:39:57.009Z,79.90
2022-08-05T22:42:35.917Z,80.00
2022-08-05T22:45:30.759Z,80.10
2022-08-05T22:48:22.207Z,80.40
2022-08-05T22:51:22.747Z,80.60
2022-08-05T22:54:14.749Z,80.50
2022-08-05T22:57:04.677Z,80.60
2022-08-05T22:59:54.101Z,80.60
2022-08-05T23:02:53.324Z,80.50
2022-08-05T23:06:13.715Z,80.60
2022-08-05T23:09:27.773Z,80.70
2022-08-05T23:12:35.144Z,80.80
2022-08-05T23:15:45.364Z,80.70
2022-08-05T23:18:28.647Z,80.80
2022-08-05T23:21:01.943Z,80.80
2022-08-05T23:24:01.144Z,80.80
2022-08-05T23:26:56.323Z,80.90
2022-08-05T23:29:38.782Z,80.80
2022-08-05T23:32:54.640Z,80.60
2022-08-05T23:35:41.100Z,80.70
2022-08-05T23:38:43.810Z,80.70
2022-08-05T23:41:37.432Z,80.70
2022-08-05T23:44:17.430Z,80.60
2022-08-05T23:46:51.659Z,80.70
2022-08-05T23:49:33.953Z,80.80
2022-08-05T23:52:31.604Z,80.80
2022-08-05T23:55:02.616Z,80.80
2022-08-05T23:57:40.722Z,80.80
